sensor_id;sensor_type;location;lat;lon;timestamp;P1;durP1;ratioP1;P2;durP2;ratioP2
36585;SDS011;22591;48.314;11.562;2022-09-09T00:03:57;4.10;;;2.80;;
36585;SDS011;22591;48.314;11.562;2022-09-09T00:06:30;4.55;;;2.53;;
36585;SDS011;22591;48.314;11.562;2022-09-09T00:09:01;3.92;;;2.92;;
36585;SDS011;22591;48.314;11.562;2022-09-09T00:11:41;3.03;;;2.70;;
36585;SDS011;22591;48.314;11.562;2022-09-09T00:14:19;2.72;;;2.53;;
36585;SDS011;22591;48.314;11.562;2022-09-09T00:17:06;2.95;;;2.83;;
36585;SDS011;22591;48.314;11.562;2022-09-09T00:20:39;3.55;;;2.83;;
36585;SDS011;22591;48.314;11.562;2022-09-09T00:22:55;9.57;;;3.08;;
36585;SDS011;22591;48.314;11.562;2022-09-09T00:28:22;2.30;;;2.20;;
36585;SDS011;22591;48.314;11.562;2022-09-09T00:30:49;2.90;;;2.70;;
36585;SDS011;22591;48.314;11.562;2022-09-09T00:33:19;5.35;;;2.50;;
36585;SDS011;22591;48.314;11.562;2022-09-09T00:35:48;2.75;;;2.40;;
36585;SDS011;22591;48.314;11.562;2022-09-09T00:43:30;2.30;;;2.10;;
36585;SDS011;22591;48.314;11.562;2022-09-09T00:49:14;2.65;;;2.25;;
36585;SDS011;22591;48.314;11.562;2022-09-09T00:52:17;1.92;;;1.80;;
36585;SDS011;22591;48.314;11.562;2022-09-09T00:57:32;2.65;;;2.10;;
36585;SDS011;22591;48.314;11.562;2022-09-09T01:05:57;2.70;;;2.50;;
36585;SDS011;22591;48.314;11.562;2022-09-09T01:08:31;2.20;;;2.00;;
36585;SDS011;22591;48.314;11.562;2022-09-09T01:11:22;2.13;;;1.90;;
36585;SDS011;22591;48.314;11.562;2022-09-09T01:13:52;2.67;;;2.47;;
36585;SDS011;22591;48.314;11.562;2022-09-09T01:16:25;2.35;;;2.13;;
36585;SDS011;22591;48.314;11.562;2022-09-09T01:18:52;2.58;;;2.38;;
36585;SDS011;22591;48.314;11.562;2022-09-09T01:21:32;2.53;;;2.42;;
36585;SDS011;22591;48.314;11.562;2022-09-09T01:27:04;2.65;;;2.45;;
36585;SDS011;22591;48.314;11.562;2022-09-09T01:29:31;3.28;;;2.85;;
36585;SDS011;22591;48.314;11.562;2022-09-09T01:31:58;2.88;;;2.58;;
36585;SDS011;22591;48.314;11.562;2022-09-09T01:34:27;4.40;;;2.53;;
36585;SDS011;22591;48.314;11.562;2022-09-09T01:39:21;2.97;;;2.60;;
36585;SDS011;22591;48.314;11.562;2022-09-09T01:41:47;3.17;;;2.22;;
36585;SDS011;22591;48.314;11.562;2022-09-09T01:44:13;3.17;;;2.30;;
36585;SDS011;22591;48.314;11.562;2022-09-09T01:46:39;3.65;;;2.08;;
36585;SDS011;22591;48.314;11.562;2022-09-09T01:49:06;2.58;;;2.38;;
36585;SDS011;22591;48.314;11.562;2022-09-09T01:51:33;3.88;;;2.30;;
36585;SDS011;22591;48.314;11.562;2022-09-09T01:54:00;2.33;;;2.17;;
36585;SDS011;22591;48.314;11.562;2022-09-09T02:04:32;4.50;;;2.75;;
36585;SDS011;22591;48.314;11.562;2022-09-09T02:07:01;2.75;;;2.55;;
36585;SDS011;22591;48.314;11.562;2022-09-09T02:09:27;2.95;;;2.75;;
36585;SDS011;22591;48.314;11.562;2022-09-09T02:12:00;2.70;;;2.50;;
36585;SDS011;22591;48.314;11.562;2022-09-09T02:14:35;3.42;;;3.10;;
36585;SDS011;22591;48.314;11.562;2022-09-09T02:17:07;3.78;;;2.75;;
36585;SDS011;22591;48.314;11.562;2022-09-09T02:19:37;3.90;;;3.20;;
36585;SDS011;22591;48.314;11.562;2022-09-09T02:22:10;4.63;;;3.30;;
36585;SDS011;22591;48.314;11.562;2022-09-09T02:24:37;6.15;;;3.17;;
36585;SDS011;22591;48.314;11.562;2022-09-09T02:27:05;5.10;;;3.67;;
36585;SDS011;22591;48.314;11.562;2022-09-09T02:29:34;4.88;;;2.97;;
36585;SDS011;22591;48.314;11.562;2022-09-09T02:32:04;3.47;;;3.17;;
36585;SDS011;22591;48.314;11.562;2022-09-09T02:34:36;3.15;;;2.80;;
36585;SDS011;22591;48.314;11.562;2022-09-09T02:37:07;3.42;;;3.03;;
36585;SDS011;22591;48.314;11.562;2022-09-09T02:39:35;4.63;;;3.10;;
36585;SDS011;22591;48.314;11.562;2022-09-09T02:42:03;4.05;;;2.90;;
36585;SDS011;22591;48.314;11.562;2022-09-09T02:44:30;4.97;;;2.90;;
36585;SDS011;22591;48.314;11.562;2022-09-09T02:55:39;5.30;;;3.05;;
36585;SDS011;22591;48.314;11.562;2022-09-09T02:58:15;4.50;;;3.22;;
36585;SDS011;22591;48.314;11.562;2022-09-09T03:00:45;3.72;;;3.28;;
36585;SDS011;22591;48.314;11.562;2022-09-09T03:03:13;3.58;;;3.28;;
36585;SDS011;22591;48.314;11.562;2022-09-09T03:05:40;4.32;;;3.92;;
36585;SDS011;22591;48.314;11.562;2022-09-09T03:08:06;5.57;;;3.47;;
36585;SDS011;22591;48.314;11.562;2022-09-09T03:10:33;5.95;;;3.78;;
36585;SDS011;22591;48.314;11.562;2022-09-09T03:13:01;4.38;;;3.35;;
36585;SDS011;22591;48.314;11.562;2022-09-09T03:15:28;4.35;;;3.25;;
36585;SDS011;22591;48.314;11.562;2022-09-09T03:17:56;3.63;;;3.42;;
36585;SDS011;22591;48.314;11.562;2022-09-09T03:20:23;4.95;;;3.80;;
36585;SDS011;22591;48.314;11.562;2022-09-09T03:22:50;4.22;;;3.83;;
36585;SDS011;22591;48.314;11.562;2022-09-09T03:25:19;4.50;;;3.40;;
36585;SDS011;22591;48.314;11.562;2022-09-09T03:27:49;3.42;;;3.05;;
36585;SDS011;22591;48.314;11.562;2022-09-09T03:30:18;3.75;;;3.40;;
36585;SDS011;22591;48.314;11.562;2022-09-09T03:32:43;4.75;;;3.30;;
36585;SDS011;22591;48.314;11.562;2022-09-09T03:35:09;4.40;;;3.38;;
36585;SDS011;22591;48.314;11.562;2022-09-09T03:37:34;4.85;;;2.72;;
36585;SDS011;22591;48.314;11.562;2022-09-09T03:40:01;4.32;;;2.80;;
36585;SDS011;22591;48.314;11.562;2022-09-09T03:42:27;3.50;;;3.10;;
36585;SDS011;22591;48.314;11.562;2022-09-09T03:44:53;3.20;;;2.90;;
36585;SDS011;22591;48.314;11.562;2022-09-09T03:47:20;3.17;;;2.90;;
36585;SDS011;22591;48.314;11.562;2022-09-09T03:49:48;4.57;;;3.15;;
36585;SDS011;22591;48.314;11.562;2022-09-09T03:52:15;2.80;;;2.50;;
36585;SDS011;22591;48.314;11.562;2022-09-09T03:54:41;3.88;;;2.88;;
36585;SDS011;22591;48.314;11.562;2022-09-09T03:57:07;3.67;;;3.00;;
36585;SDS011;22591;48.314;11.562;2022-09-09T03:59:33;4.65;;;2.85;;
36585;SDS011;22591;48.314;11.562;2022-09-09T04:02:00;3.10;;;2.83;;
36585;SDS011;22591;48.314;11.562;2022-09-09T04:04:26;5.68;;;3.08;;
36585;SDS011;22591;48.314;11.562;2022-09-09T04:06:52;6.43;;;2.92;;
36585;SDS011;22591;48.314;11.562;2022-09-09T04:09:18;4.10;;;3.42;;
36585;SDS011;22591;48.314;11.562;2022-09-09T04:11:44;2.65;;;2.42;;
36585;SDS011;22591;48.314;11.562;2022-09-09T04:14:11;3.22;;;2.80;;
36585;SDS011;22591;48.314;11.562;2022-09-09T04:16:37;3.83;;;2.75;;
36585;SDS011;22591;48.314;11.562;2022-09-09T04:19:03;2.78;;;2.63;;
36585;SDS011;22591;48.314;11.562;2022-09-09T04:21:30;3.33;;;3.05;;
36585;SDS011;22591;48.314;11.562;2022-09-09T04:23:55;3.92;;;2.53;;
36585;SDS011;22591;48.314;11.562;2022-09-09T04:26:21;3.40;;;2.50;;
36585;SDS011;22591;48.314;11.562;2022-09-09T04:28:49;4.47;;;3.35;;
36585;SDS011;22591;48.314;11.562;2022-09-09T04:31:16;3.50;;;2.78;;
36585;SDS011;22591;48.314;11.562;2022-09-09T04:33:49;4.15;;;2.78;;
36585;SDS011;22591;48.314;11.562;2022-09-09T04:36:16;5.35;;;2.90;;
36585;SDS011;22591;48.314;11.562;2022-09-09T04:38:44;4.95;;;3.05;;
36585;SDS011;22591;48.314;11.562;2022-09-09T04:41:10;3.53;;;3.22;;
36585;SDS011;22591;48.314;11.562;2022-09-09T04:43:37;3.95;;;2.90;;
36585;SDS011;22591;48.314;11.562;2022-09-09T04:46:04;3.35;;;2.97;;
36585;SDS011;22591;48.314;11.562;2022-09-09T04:48:30;4.18;;;3.15;;
36585;SDS011;22591;48.314;11.562;2022-09-09T04:51:04;3.47;;;2.90;;
36585;SDS011;22591;48.314;11.562;2022-09-09T04:53:31;4.15;;;2.80;;
36585;SDS011;22591;48.314;11.562;2022-09-09T04:56:32;2.60;;;2.40;;
36585;SDS011;22591;48.314;11.562;2022-09-09T04:58:54;4.55;;;2.58;;
36585;SDS011;22591;48.314;11.562;2022-09-09T05:01:20;2.72;;;2.50;;
36585;SDS011;22591;48.314;11.562;2022-09-09T05:03:47;2.22;;;1.98;;
36585;SDS011;22591;48.314;11.562;2022-09-09T05:06:14;5.80;;;2.63;;
36585;SDS011;22591;48.314;11.562;2022-09-09T05:08:44;2.58;;;2.38;;
36585;SDS011;22591;48.314;11.562;2022-09-09T05:11:28;4.20;;;2.75;;
36585;SDS011;22591;48.314;11.562;2022-09-09T05:13:56;2.58;;;2.38;;
36585;SDS011;22591;48.314;11.562;2022-09-09T05:16:22;5.00;;;2.30;;
36585;SDS011;22591;48.314;11.562;2022-09-09T05:18:49;3.58;;;2.60;;
36585;SDS011;22591;48.314;11.562;2022-09-09T05:21:16;3.33;;;3.08;;
36585;SDS011;22591;48.314;11.562;2022-09-09T05:23:44;2.35;;;2.25;;
36585;SDS011;22591;48.314;11.562;2022-09-09T05:26:11;3.70;;;2.28;;
36585;SDS011;22591;48.314;11.562;2022-09-09T05:28:39;2.70;;;2.47;;
36585;SDS011;22591;48.314;11.562;2022-09-09T05:31:07;3.47;;;2.70;;
36585;SDS011;22591;48.314;11.562;2022-09-09T05:33:37;4.43;;;2.60;;
36585;SDS011;22591;48.314;11.562;2022-09-09T05:36:05;2.50;;;2.30;;
36585;SDS011;22591;48.314;11.562;2022-09-09T05:38:33;2.92;;;2.67;;
36585;SDS011;22591;48.314;11.562;2022-09-09T05:40:59;2.40;;;2.20;;
36585;SDS011;22591;48.314;11.562;2022-09-09T05:43:29;5.38;;;2.63;;
36585;SDS011;22591;48.314;11.562;2022-09-09T05:46:08;6.25;;;2.60;;
36585;SDS011;22591;48.314;11.562;2022-09-09T05:48:39;3.17;;;2.85;;
36585;SDS011;22591;48.314;11.562;2022-09-09T05:51:07;2.88;;;2.67;;
36585;SDS011;22591;48.314;11.562;2022-09-09T05:53:35;3.40;;;2.72;;
36585;SDS011;22591;48.314;11.562;2022-09-09T05:56:03;2.92;;;2.80;;
36585;SDS011;22591;48.314;11.562;2022-09-09T05:58:29;3.50;;;2.65;;
36585;SDS011;22591;48.314;11.562;2022-09-09T06:01:05;2.72;;;2.53;;
36585;SDS011;22591;48.314;11.562;2022-09-09T06:03:34;3.10;;;2.45;;
36585;SDS011;22591;48.314;11.562;2022-09-09T06:06:01;5.28;;;2.70;;
36585;SDS011;22591;48.314;11.562;2022-09-09T06:08:36;2.78;;;2.47;;
36585;SDS011;22591;48.314;11.562;2022-09-09T06:13:31;3.30;;;3.03;;
36585;SDS011;22591;48.314;11.562;2022-09-09T06:15:56;4.35;;;3.00;;
36585;SDS011;22591;48.314;11.562;2022-09-09T06:18:23;4.45;;;3.00;;
36585;SDS011;22591;48.314;11.562;2022-09-09T06:21:32;3.47;;;2.80;;
36585;SDS011;22591;48.314;11.562;2022-09-09T06:23:42;6.97;;;3.03;;
36585;SDS011;22591;48.314;11.562;2022-09-09T06:26:11;5.72;;;3.15;;
36585;SDS011;22591;48.314;11.562;2022-09-09T06:31:20;9.52;;;3.30;;
36585;SDS011;22591;48.314;11.562;2022-09-09T06:33:54;2.85;;;2.63;;
36585;SDS011;22591;48.314;11.562;2022-09-09T06:38:51;6.95;;;3.15;;
36585;SDS011;22591;48.314;11.562;2022-09-09T06:41:20;5.28;;;3.00;;
36585;SDS011;22591;48.314;11.562;2022-09-09T06:43:47;5.35;;;2.95;;
36585;SDS011;22591;48.314;11.562;2022-09-09T06:46:14;5.55;;;2.88;;
36585;SDS011;22591;48.314;11.562;2022-09-09T06:48:43;9.50;;;3.58;;
36585;SDS011;22591;48.314;11.562;2022-09-09T06:51:16;10.18;;;3.70;;
36585;SDS011;22591;48.314;11.562;2022-09-09T06:53:55;4.70;;;3.30;;
36585;SDS011;22591;48.314;11.562;2022-09-09T06:56:26;8.35;;;3.28;;
36585;SDS011;22591;48.314;11.562;2022-09-09T06:58:55;3.70;;;3.05;;
36585;SDS011;22591;48.314;11.562;2022-09-09T07:01:30;3.97;;;2.63;;
36585;SDS011;22591;48.314;11.562;2022-09-09T07:03:58;3.75;;;2.97;;
36585;SDS011;22591;48.314;11.562;2022-09-09T07:06:27;4.07;;;3.38;;
36585;SDS011;22591;48.314;11.562;2022-09-09T07:08:54;3.78;;;3.10;;
36585;SDS011;22591;48.314;11.562;2022-09-09T07:11:26;5.82;;;3.10;;
36585;SDS011;22591;48.314;11.562;2022-09-09T07:13:55;4.18;;;2.45;;
36585;SDS011;22591;48.314;11.562;2022-09-09T07:16:22;3.17;;;2.83;;
36585;SDS011;22591;48.314;11.562;2022-09-09T07:18:51;2.72;;;2.53;;
36585;SDS011;22591;48.314;11.562;2022-09-09T07:21:18;3.15;;;2.47;;
36585;SDS011;22591;48.314;11.562;2022-09-09T07:23:45;3.22;;;2.60;;
36585;SDS011;22591;48.314;11.562;2022-09-09T07:26:19;2.75;;;2.13;;
36585;SDS011;22591;48.314;11.562;2022-09-09T07:28:47;2.95;;;2.50;;
36585;SDS011;22591;48.314;11.562;2022-09-09T07:31:17;2.15;;;1.98;;
36585;SDS011;22591;48.314;11.562;2022-09-09T07:33:45;5.45;;;2.65;;
36585;SDS011;22591;48.314;11.562;2022-09-09T07:36:20;5.35;;;2.88;;
36585;SDS011;22591;48.314;11.562;2022-09-09T07:38:48;37.45;;;5.03;;
36585;SDS011;22591;48.314;11.562;2022-09-09T07:41:26;3.90;;;3.13;;
36585;SDS011;22591;48.314;11.562;2022-09-09T07:44:03;3.38;;;2.70;;
36585;SDS011;22591;48.314;11.562;2022-09-09T07:46:33;3.83;;;2.30;;
36585;SDS011;22591;48.314;11.562;2022-09-09T07:49:01;5.25;;;2.42;;
36585;SDS011;22591;48.314;11.562;2022-09-09T07:51:31;2.33;;;2.15;;
36585;SDS011;22591;48.314;11.562;2022-09-09T07:54:00;3.78;;;2.42;;
36585;SDS011;22591;48.314;11.562;2022-09-09T07:56:29;2.58;;;2.40;;
36585;SDS011;22591;48.314;11.562;2022-09-09T07:58:56;2.40;;;2.20;;
36585;SDS011;22591;48.314;11.562;2022-09-09T08:01:27;2.90;;;2.35;;
36585;SDS011;22591;48.314;11.562;2022-09-09T08:04:03;2.50;;;2.30;;
36585;SDS011;22591;48.314;11.562;2022-09-09T08:06:37;3.63;;;2.78;;
36585;SDS011;22591;48.314;11.562;2022-09-09T08:09:04;5.07;;;2.83;;
36585;SDS011;22591;48.314;11.562;2022-09-09T08:11:32;4.78;;;3.17;;
36585;SDS011;22591;48.314;11.562;2022-09-09T08:14:02;4.82;;;2.97;;
36585;SDS011;22591;48.314;11.562;2022-09-09T08:16:31;5.80;;;2.90;;
36585;SDS011;22591;48.314;11.562;2022-09-09T08:19:00;3.35;;;2.50;;
36585;SDS011;22591;48.314;11.562;2022-09-09T08:21:27;2.95;;;2.40;;
36585;SDS011;22591;48.314;11.562;2022-09-09T08:23:54;5.70;;;2.45;;
36585;SDS011;22591;48.314;11.562;2022-09-09T08:26:23;2.13;;;2.03;;
36585;SDS011;22591;48.314;11.562;2022-09-09T08:28:53;3.00;;;2.25;;
36585;SDS011;22591;48.314;11.562;2022-09-09T08:31:22;2.58;;;2.33;;
36585;SDS011;22591;48.314;11.562;2022-09-09T08:33:54;5.50;;;2.17;;
36585;SDS011;22591;48.314;11.562;2022-09-09T08:36:23;2.50;;;2.30;;
36585;SDS011;22591;48.314;11.562;2022-09-09T08:38:54;3.88;;;2.30;;
36585;SDS011;22591;48.314;11.562;2022-09-09T08:52:58;1.60;;;1.48;;
36585;SDS011;22591;48.314;11.562;2022-09-09T08:58:21;6.53;;;1.80;;
36585;SDS011;22591;48.314;11.562;2022-09-09T09:06:18;4.35;;;1.98;;
36585;SDS011;22591;48.314;11.562;2022-09-09T09:14:23;3.40;;;2.65;;
36585;SDS011;22591;48.314;11.562;2022-09-09T09:16:54;4.65;;;2.40;;
36585;SDS011;22591;48.314;11.562;2022-09-09T09:19:27;3.28;;;2.45;;
36585;SDS011;22591;48.314;11.562;2022-09-09T09:22:14;2.42;;;2.22;;
36585;SDS011;22591;48.314;11.562;2022-09-09T09:24:55;3.58;;;2.50;;
36585;SDS011;22591;48.314;11.562;2022-09-09T09:27:30;3.83;;;2.60;;
36585;SDS011;22591;48.314;11.562;2022-09-09T09:29:58;3.65;;;2.72;;
36585;SDS011;22591;48.314;11.562;2022-09-09T09:32:26;4.55;;;2.65;;
36585;SDS011;22591;48.314;11.562;2022-09-09T09:34:57;2.40;;;2.20;;
36585;SDS011;22591;48.314;11.562;2022-09-09T09:37:33;3.55;;;2.85;;
36585;SDS011;22591;48.314;11.562;2022-09-09T09:40:15;4.20;;;2.40;;
36585;SDS011;22591;48.314;11.562;2022-09-09T09:42:54;2.33;;;2.08;;
36585;SDS011;22591;48.314;11.562;2022-09-09T09:45:33;3.90;;;2.20;;
36585;SDS011;22591;48.314;11.562;2022-09-09T09:48:13;2.65;;;1.90;;
36585;SDS011;22591;48.314;11.562;2022-09-09T09:56:01;3.50;;;2.05;;
36585;SDS011;22591;48.314;11.562;2022-09-09T10:00:59;4.30;;;2.35;;
36585;SDS011;22591;48.314;11.562;2022-09-09T10:03:29;2.83;;;1.80;;
36585;SDS011;22591;48.314;11.562;2022-09-09T10:05:56;2.03;;;1.77;;
36585;SDS011;22591;48.314;11.562;2022-09-09T10:08:24;3.72;;;2.28;;
36585;SDS011;22591;48.314;11.562;2022-09-09T10:19:29;2.95;;;2.30;;
36585;SDS011;22591;48.314;11.562;2022-09-09T10:22:01;6.03;;;2.22;;
36585;SDS011;22591;48.314;11.562;2022-09-09T10:24:38;4.00;;;2.10;;
36585;SDS011;22591;48.314;11.562;2022-09-09T10:27:36;3.28;;;1.92;;
36585;SDS011;22591;48.314;11.562;2022-09-09T10:30:17;2.50;;;1.73;;
36585;SDS011;22591;48.314;11.562;2022-09-09T10:32:49;1.88;;;1.70;;
36585;SDS011;22591;48.314;11.562;2022-09-09T10:38:42;1.73;;;1.63;;
36585;SDS011;22591;48.314;11.562;2022-09-09T10:41:26;2.88;;;1.90;;
36585;SDS011;22591;48.314;11.562;2022-09-09T10:53:43;3.97;;;1.60;;
36585;SDS011;22591;48.314;11.562;2022-09-09T10:56:28;3.55;;;1.73;;
36585;SDS011;22591;48.314;11.562;2022-09-09T10:59:05;2.10;;;1.75;;
36585;SDS011;22591;48.314;11.562;2022-09-09T11:01:37;2.65;;;1.35;;
36585;SDS011;22591;48.314;11.562;2022-09-09T11:04:55;1.30;;;1.15;;
36585;SDS011;22591;48.314;11.562;2022-09-09T11:07:02;3.85;;;1.73;;
36585;SDS011;22591;48.314;11.562;2022-09-09T11:09:36;2.03;;;1.50;;
36585;SDS011;22591;48.314;11.562;2022-09-09T11:12:10;2.13;;;1.27;;
36585;SDS011;22591;48.314;11.562;2022-09-09T11:14:45;3.30;;;1.75;;
36585;SDS011;22591;48.314;11.562;2022-09-09T11:17:36;1.35;;;1.10;;
36585;SDS011;22591;48.314;11.562;2022-09-09T11:20:10;2.45;;;1.10;;
36585;SDS011;22591;48.314;11.562;2022-09-09T11:22:59;4.18;;;1.30;;
36585;SDS011;22591;48.314;11.562;2022-09-09T11:31:28;5.75;;;1.10;;
36585;SDS011;22591;48.314;11.562;2022-09-09T11:42:46;6.07;;;1.75;;
36585;SDS011;22591;48.314;11.562;2022-09-09T11:45:22;1.67;;;1.20;;
36585;SDS011;22591;48.314;11.562;2022-09-09T11:48:00;2.00;;;1.27;;
36585;SDS011;22591;48.314;11.562;2022-09-09T11:50:32;1.30;;;1.10;;
36585;SDS011;22591;48.314;11.562;2022-09-09T11:56:10;2.97;;;1.38;;
36585;SDS011;22591;48.314;11.562;2022-09-09T11:58:41;2.42;;;1.40;;
36585;SDS011;22591;48.314;11.562;2022-09-09T12:01:25;2.65;;;1.20;;
36585;SDS011;22591;48.314;11.562;2022-09-09T12:04:02;2.10;;;1.10;;
36585;SDS011;22591;48.314;11.562;2022-09-09T12:06:43;4.05;;;1.50;;
36585;SDS011;22591;48.314;11.562;2022-09-09T12:12:05;3.58;;;1.20;;
36585;SDS011;22591;48.314;11.562;2022-09-09T12:14:37;1.98;;;1.00;;
36585;SDS011;22591;48.314;11.562;2022-09-09T12:17:21;1.27;;;1.17;;
36585;SDS011;22591;48.314;11.562;2022-09-09T12:19:48;3.92;;;1.40;;
36585;SDS011;22591;48.314;11.562;2022-09-09T12:31:10;2.40;;;1.00;;
36585;SDS011;22591;48.314;11.562;2022-09-09T12:33:44;2.05;;;1.40;;
36585;SDS011;22591;48.314;11.562;2022-09-09T12:36:15;2.95;;;1.42;;
36585;SDS011;22591;48.314;11.562;2022-09-09T12:38:45;1.88;;;0.90;;
36585;SDS011;22591;48.314;11.562;2022-09-09T12:41:18;1.30;;;1.10;;
36585;SDS011;22591;48.314;11.562;2022-09-09T12:43:47;1.58;;;1.17;;
36585;SDS011;22591;48.314;11.562;2022-09-09T12:46:27;2.20;;;1.35;;
36585;SDS011;22591;48.314;11.562;2022-09-09T12:49:04;1.40;;;1.00;;
36585;SDS011;22591;48.314;11.562;2022-09-09T12:51:32;2.53;;;1.20;;
36585;SDS011;22591;48.314;11.562;2022-09-09T12:53:59;4.90;;;1.75;;
36585;SDS011;22591;48.314;11.562;2022-09-09T12:56:27;2.72;;;1.20;;
36585;SDS011;22591;48.314;11.562;2022-09-09T12:59:00;6.78;;;1.42;;
36585;SDS011;22591;48.314;11.562;2022-09-09T13:01:30;3.80;;;1.10;;
36585;SDS011;22591;48.314;11.562;2022-09-09T13:03:59;1.23;;;0.90;;
36585;SDS011;22591;48.314;11.562;2022-09-09T13:06:28;2.25;;;1.20;;
36585;SDS011;22591;48.314;11.562;2022-09-09T13:09:01;1.42;;;0.88;;
36585;SDS011;22591;48.314;11.562;2022-09-09T13:11:33;2.13;;;1.10;;
36585;SDS011;22591;48.314;11.562;2022-09-09T13:14:16;0.60;;;0.60;;
36585;SDS011;22591;48.314;11.562;2022-09-09T13:16:55;1.42;;;0.80;;
36585;SDS011;22591;48.314;11.562;2022-09-09T13:19:23;3.33;;;1.20;;
36585;SDS011;22591;48.314;11.562;2022-09-09T13:21:55;1.88;;;1.15;;
36585;SDS011;22591;48.314;11.562;2022-09-09T13:27:05;1.35;;;1.10;;
36585;SDS011;22591;48.314;11.562;2022-09-09T13:29:55;1.73;;;1.05;;
36585;SDS011;22591;48.314;11.562;2022-09-09T13:32:21;2.08;;;0.98;;
36585;SDS011;22591;48.314;11.562;2022-09-09T13:34:52;1.30;;;0.90;;
36585;SDS011;22591;48.314;11.562;2022-09-09T13:37:31;1.27;;;0.90;;
36585;SDS011;22591;48.314;11.562;2022-09-09T13:40:18;1.60;;;0.70;;
36585;SDS011;22591;48.314;11.562;2022-09-09T13:42:47;3.67;;;1.05;;
36585;SDS011;22591;48.314;11.562;2022-09-09T13:45:23;0.88;;;0.70;;
36585;SDS011;22591;48.314;11.562;2022-09-09T13:47:53;3.22;;;0.98;;
36585;SDS011;22591;48.314;11.562;2022-09-09T13:50:27;1.95;;;0.93;;
36585;SDS011;22591;48.314;11.562;2022-09-09T13:52:54;1.27;;;0.70;;
36585;SDS011;22591;48.314;11.562;2022-09-09T13:55:23;1.40;;;0.90;;
36585;SDS011;22591;48.314;11.562;2022-09-09T14:00:26;2.42;;;1.02;;
36585;SDS011;22591;48.314;11.562;2022-09-09T14:03:01;3.15;;;0.95;;
36585;SDS011;22591;48.314;11.562;2022-09-09T14:05:30;3.88;;;0.82;;
36585;SDS011;22591;48.314;11.562;2022-09-09T14:07:59;1.00;;;0.80;;
36585;SDS011;22591;48.314;11.562;2022-09-09T14:10:26;2.75;;;0.75;;
36585;SDS011;22591;48.314;11.562;2022-09-09T14:12:53;1.25;;;0.70;;
36585;SDS011;22591;48.314;11.562;2022-09-09T14:15:20;2.90;;;0.90;;
36585;SDS011;22591;48.314;11.562;2022-09-09T14:17:48;0.75;;;0.63;;
36585;SDS011;22591;48.314;11.562;2022-09-09T14:20:13;0.80;;;0.50;;
36585;SDS011;22591;48.314;11.562;2022-09-09T14:22:41;0.77;;;0.60;;
36585;SDS011;22591;48.314;11.562;2022-09-09T14:25:07;2.13;;;0.73;;
36585;SDS011;22591;48.314;11.562;2022-09-09T14:27:33;3.80;;;0.60;;
36585;SDS011;22591;48.314;11.562;2022-09-09T14:30:00;6.03;;;1.08;;
36585;SDS011;22591;48.314;11.562;2022-09-09T14:32:32;0.82;;;0.50;;
36585;SDS011;22591;48.314;11.562;2022-09-09T14:34:59;0.57;;;0.50;;
36585;SDS011;22591;48.314;11.562;2022-09-09T14:37:24;0.93;;;0.57;;
36585;SDS011;22591;48.314;11.562;2022-09-09T14:39:53;2.28;;;0.60;;
36585;SDS011;22591;48.314;11.562;2022-09-09T14:42:22;1.15;;;0.70;;
36585;SDS011;22591;48.314;11.562;2022-09-09T14:44:49;0.82;;;0.60;;
36585;SDS011;22591;48.314;11.562;2022-09-09T14:47:17;1.98;;;0.88;;
36585;SDS011;22591;48.314;11.562;2022-09-09T14:49:44;0.60;;;0.60;;
36585;SDS011;22591;48.314;11.562;2022-09-09T14:52:12;2.55;;;1.17;;
36585;SDS011;22591;48.314;11.562;2022-09-09T14:54:39;0.73;;;0.70;;
36585;SDS011;22591;48.314;11.562;2022-09-09T14:57:05;1.85;;;0.85;;
36585;SDS011;22591;48.314;11.562;2022-09-09T14:59:30;1.75;;;0.50;;
36585;SDS011;22591;48.314;11.562;2022-09-09T15:01:57;1.77;;;0.70;;
36585;SDS011;22591;48.314;11.562;2022-09-09T15:04:27;1.45;;;0.73;;
36585;SDS011;22591;48.314;11.562;2022-09-09T15:06:53;1.65;;;0.80;;
36585;SDS011;22591;48.314;11.562;2022-09-09T15:09:19;2.17;;;1.02;;
36585;SDS011;22591;48.314;11.562;2022-09-09T15:11:46;2.45;;;1.10;;
36585;SDS011;22591;48.314;11.562;2022-09-09T15:14:12;2.55;;;0.93;;
36585;SDS011;22591;48.314;11.562;2022-09-09T15:16:39;2.53;;;0.70;;
36585;SDS011;22591;48.314;11.562;2022-09-09T15:19:06;2.15;;;0.80;;
36585;SDS011;22591;48.314;11.562;2022-09-09T15:21:34;3.92;;;1.10;;
36585;SDS011;22591;48.314;11.562;2022-09-09T15:24:02;1.10;;;0.70;;
36585;SDS011;22591;48.314;11.562;2022-09-09T15:26:29;0.95;;;0.60;;
36585;SDS011;22591;48.314;11.562;2022-09-09T15:28:57;1.70;;;0.60;;
36585;SDS011;22591;48.314;11.562;2022-09-09T15:31:27;2.75;;;0.80;;
36585;SDS011;22591;48.314;11.562;2022-09-09T15:34:01;1.65;;;0.82;;
36585;SDS011;22591;48.314;11.562;2022-09-09T15:36:36;4.03;;;0.88;;
36585;SDS011;22591;48.314;11.562;2022-09-09T15:39:13;1.60;;;0.80;;
36585;SDS011;22591;48.314;11.562;2022-09-09T15:41:42;1.65;;;0.80;;
36585;SDS011;22591;48.314;11.562;2022-09-09T15:44:08;1.17;;;0.70;;
36585;SDS011;22591;48.314;11.562;2022-09-09T15:46:43;1.33;;;0.85;;
36585;SDS011;22591;48.314;11.562;2022-09-09T15:49:17;1.10;;;0.60;;
36585;SDS011;22591;48.314;11.562;2022-09-09T15:51:59;1.95;;;0.88;;
36585;SDS011;22591;48.314;11.562;2022-09-09T15:54:33;1.30;;;0.70;;
36585;SDS011;22591;48.314;11.562;2022-09-09T15:57:03;1.83;;;0.63;;
36585;SDS011;22591;48.314;11.562;2022-09-09T15:59:31;2.40;;;0.80;;
36585;SDS011;22591;48.314;11.562;2022-09-09T16:01:59;0.98;;;0.80;;
36585;SDS011;22591;48.314;11.562;2022-09-09T16:04:26;1.00;;;0.68;;
36585;SDS011;22591;48.314;11.562;2022-09-09T16:09:33;2.83;;;0.65;;
36585;SDS011;22591;48.314;11.562;2022-09-09T16:12:02;1.83;;;0.57;;
36585;SDS011;22591;48.314;11.562;2022-09-09T16:14:33;1.35;;;0.77;;
36585;SDS011;22591;48.314;11.562;2022-09-09T16:17:02;1.83;;;1.10;;
36585;SDS011;22591;48.314;11.562;2022-09-09T16:19:30;1.33;;;0.85;;
36585;SDS011;22591;48.314;11.562;2022-09-09T16:21:56;2.30;;;0.80;;
36585;SDS011;22591;48.314;11.562;2022-09-09T16:24:23;1.40;;;0.90;;
36585;SDS011;22591;48.314;11.562;2022-09-09T16:26:50;4.47;;;0.75;;
36585;SDS011;22591;48.314;11.562;2022-09-09T16:29:18;2.53;;;0.98;;
36585;SDS011;22591;48.314;11.562;2022-09-09T16:31:45;1.55;;;0.70;;
36585;SDS011;22591;48.314;11.562;2022-09-09T16:34:13;1.08;;;0.65;;
36585;SDS011;22591;48.314;11.562;2022-09-09T16:36:41;2.67;;;0.77;;
36585;SDS011;22591;48.314;11.562;2022-09-09T16:39:13;3.10;;;0.82;;
36585;SDS011;22591;48.314;11.562;2022-09-09T16:41:42;3.33;;;0.70;;
36585;SDS011;22591;48.314;11.562;2022-09-09T16:44:11;4.45;;;1.10;;
36585;SDS011;22591;48.314;11.562;2022-09-09T16:46:42;2.15;;;0.90;;
36585;SDS011;22591;48.314;11.562;2022-09-09T16:49:14;2.17;;;1.30;;
36585;SDS011;22591;48.314;11.562;2022-09-09T16:51:47;1.67;;;0.75;;
36585;SDS011;22591;48.314;11.562;2022-09-09T16:54:16;1.58;;;0.77;;
36585;SDS011;22591;48.314;11.562;2022-09-09T16:56:45;2.40;;;0.80;;
36585;SDS011;22591;48.314;11.562;2022-09-09T16:59:16;1.03;;;0.60;;
36585;SDS011;22591;48.314;11.562;2022-09-09T17:01:45;3.45;;;0.98;;
36585;SDS011;22591;48.314;11.562;2022-09-09T17:04:14;0.70;;;0.70;;
36585;SDS011;22591;48.314;11.562;2022-09-09T17:06:47;3.05;;;0.80;;
36585;SDS011;22591;48.314;11.562;2022-09-09T17:09:21;1.33;;;0.70;;
36585;SDS011;22591;48.314;11.562;2022-09-09T17:11:50;4.15;;;0.80;;
36585;SDS011;22591;48.314;11.562;2022-09-09T17:14:19;1.25;;;1.13;;
36585;SDS011;22591;48.314;11.562;2022-09-09T17:16:46;2.55;;;0.95;;
36585;SDS011;22591;48.314;11.562;2022-09-09T17:19:13;1.38;;;0.45;;